Carson Colony, Nevada
Current Conditions -  °F | °C
As of 12:35 PM on Monday 26 Jan 2015 (Local Time) from KCXP Reporting Station
Clear Clear  
Wind Chill: 50°   Ceiling: Unl
Heat Index: 50°   Visibility: 10mi
Dew Point: 25°   Wind: 3mph
Humidity: 37%   Direction: 150°SSE
Pressure: 30.15"   Gusts: NA
Location:  39.1386°N, 119.659°W
Report Text: KCXP 262035Z AUTO 15003KT 10SM CLR 10/M04 A3015 RMK AO2
Loading
Personal Weather Stations






























Interactive Weather Map New forecast layout! Learn more

10-Day Weather Forecast

Advertisements
Track Severe Weather on mobile